sensor_id;sensor_type;location;lat;lon;timestamp;P1;durP1;ratioP1;P2;durP2;ratioP2
14907;SDS011;7545;52.092;7.006;2023-04-28T00:00:48;2.63;;;2.20;;
14907;SDS011;7545;52.092;7.006;2023-04-28T00:03:14;2.72;;;2.05;;
14907;SDS011;7545;52.092;7.006;2023-04-28T00:05:40;2.97;;;2.17;;
14907;SDS011;7545;52.092;7.006;2023-04-28T00:08:06;5.30;;;2.50;;
14907;SDS011;7545;52.092;7.006;2023-04-28T00:10:32;4.03;;;2.30;;
14907;SDS011;7545;52.092;7.006;2023-04-28T00:12:58;3.72;;;2.30;;
14907;SDS011;7545;52.092;7.006;2023-04-28T00:15:24;2.47;;;2.13;;
14907;SDS011;7545;52.092;7.006;2023-04-28T00:17:49;4.28;;;2.53;;
14907;SDS011;7545;52.092;7.006;2023-04-28T00:20:15;2.88;;;2.58;;
14907;SDS011;7545;52.092;7.006;2023-04-28T00:22:41;2.60;;;2.00;;
14907;SDS011;7545;52.092;7.006;2023-04-28T00:25:06;3.88;;;1.95;;
14907;SDS011;7545;52.092;7.006;2023-04-28T00:27:33;5.45;;;2.20;;
14907;SDS011;7545;52.092;7.006;2023-04-28T00:29:59;5.00;;;2.38;;
14907;SDS011;7545;52.092;7.006;2023-04-28T00:32:25;3.40;;;2.35;;
14907;SDS011;7545;52.092;7.006;2023-04-28T00:34:50;2.20;;;2.00;;
14907;SDS011;7545;52.092;7.006;2023-04-28T00:37:17;2.97;;;2.30;;
14907;SDS011;7545;52.092;7.006;2023-04-28T00:39:43;3.28;;;2.45;;
14907;SDS011;7545;52.092;7.006;2023-04-28T00:42:14;4.57;;;2.10;;
14907;SDS011;7545;52.092;7.006;2023-04-28T00:44:40;3.70;;;2.40;;
14907;SDS011;7545;52.092;7.006;2023-04-28T00:47:09;4.13;;;2.10;;
14907;SDS011;7545;52.092;7.006;2023-04-28T00:49:35;2.78;;;2.28;;
14907;SDS011;7545;52.092;7.006;2023-04-28T00:52:03;4.47;;;2.10;;
14907;SDS011;7545;52.092;7.006;2023-04-28T00:54:29;3.60;;;2.35;;
14907;SDS011;7545;52.092;7.006;2023-04-28T00:56:56;4.33;;;2.40;;
14907;SDS011;7545;52.092;7.006;2023-04-28T00:59:22;6.70;;;2.20;;
14907;SDS011;7545;52.092;7.006;2023-04-28T01:01:48;3.38;;;2.67;;
14907;SDS011;7545;52.092;7.006;2023-04-28T01:04:18;4.45;;;2.38;;
14907;SDS011;7545;52.092;7.006;2023-04-28T01:06:45;4.47;;;2.40;;
14907;SDS011;7545;52.092;7.006;2023-04-28T01:09:12;3.30;;;2.30;;
14907;SDS011;7545;52.092;7.006;2023-04-28T01:11:37;4.50;;;2.10;;
14907;SDS011;7545;52.092;7.006;2023-04-28T01:14:03;3.93;;;2.07;;
14907;SDS011;7545;52.092;7.006;2023-04-28T01:16:29;4.20;;;2.90;;
14907;SDS011;7545;52.092;7.006;2023-04-28T01:18:56;4.85;;;2.50;;
14907;SDS011;7545;52.092;7.006;2023-04-28T01:21:32;4.33;;;2.67;;
14907;SDS011;7545;52.092;7.006;2023-04-28T01:24:01;3.97;;;2.45;;
14907;SDS011;7545;52.092;7.006;2023-04-28T01:26:29;6.90;;;2.60;;
14907;SDS011;7545;52.092;7.006;2023-04-28T01:28:55;3.13;;;2.40;;
14907;SDS011;7545;52.092;7.006;2023-04-28T01:31:20;2.63;;;2.33;;
14907;SDS011;7545;52.092;7.006;2023-04-28T01:33:46;5.93;;;2.40;;
14907;SDS011;7545;52.092;7.006;2023-04-28T01:36:12;3.47;;;2.72;;
14907;SDS011;7545;52.092;7.006;2023-04-28T01:38:37;2.90;;;2.23;;
14907;SDS011;7545;52.092;7.006;2023-04-28T01:41:03;5.63;;;2.80;;
14907;SDS011;7545;52.092;7.006;2023-04-28T01:43:28;3.92;;;2.60;;
14907;SDS011;7545;52.092;7.006;2023-04-28T01:45:54;9.30;;;2.50;;
14907;SDS011;7545;52.092;7.006;2023-04-28T01:48:20;3.45;;;2.58;;
14907;SDS011;7545;52.092;7.006;2023-04-28T01:50:45;6.27;;;2.97;;
14907;SDS011;7545;52.092;7.006;2023-04-28T01:53:11;4.28;;;3.00;;
14907;SDS011;7545;52.092;7.006;2023-04-28T01:55:37;3.75;;;2.45;;
14907;SDS011;7545;52.092;7.006;2023-04-28T01:58:03;4.90;;;2.70;;
14907;SDS011;7545;52.092;7.006;2023-04-28T02:00:28;3.33;;;2.65;;
14907;SDS011;7545;52.092;7.006;2023-04-28T02:02:54;3.57;;;2.67;;
14907;SDS011;7545;52.092;7.006;2023-04-28T02:05:20;4.82;;;2.70;;
14907;SDS011;7545;52.092;7.006;2023-04-28T02:07:45;3.53;;;2.90;;
14907;SDS011;7545;52.092;7.006;2023-04-28T02:10:12;3.55;;;2.55;;
14907;SDS011;7545;52.092;7.006;2023-04-28T02:12:38;4.37;;;2.70;;
14907;SDS011;7545;52.092;7.006;2023-04-28T02:15:05;3.37;;;2.67;;
14907;SDS011;7545;52.092;7.006;2023-04-28T02:17:31;5.33;;;2.87;;
14907;SDS011;7545;52.092;7.006;2023-04-28T02:19:57;5.63;;;3.57;;
14907;SDS011;7545;52.092;7.006;2023-04-28T02:22:23;6.13;;;2.90;;
14907;SDS011;7545;52.092;7.006;2023-04-28T02:24:49;4.47;;;3.20;;
14907;SDS011;7545;52.092;7.006;2023-04-28T02:27:15;3.70;;;2.70;;
14907;SDS011;7545;52.092;7.006;2023-04-28T02:29:41;6.47;;;2.83;;
14907;SDS011;7545;52.092;7.006;2023-04-28T02:32:06;3.40;;;2.57;;
14907;SDS011;7545;52.092;7.006;2023-04-28T02:34:32;4.22;;;2.63;;
14907;SDS011;7545;52.092;7.006;2023-04-28T02:36:58;4.83;;;2.70;;
14907;SDS011;7545;52.092;7.006;2023-04-28T02:39:24;5.50;;;2.70;;
14907;SDS011;7545;52.092;7.006;2023-04-28T02:41:53;3.00;;;2.75;;
14907;SDS011;7545;52.092;7.006;2023-04-28T02:44:20;3.83;;;3.20;;
14907;SDS011;7545;52.092;7.006;2023-04-28T02:46:45;6.20;;;2.67;;
14907;SDS011;7545;52.092;7.006;2023-04-28T02:49:11;4.93;;;3.00;;
14907;SDS011;7545;52.092;7.006;2023-04-28T02:51:37;3.47;;;2.60;;
14907;SDS011;7545;52.092;7.006;2023-04-28T02:54:03;5.17;;;3.10;;
14907;SDS011;7545;52.092;7.006;2023-04-28T02:56:29;6.07;;;3.53;;
14907;SDS011;7545;52.092;7.006;2023-04-28T02:58:55;5.93;;;3.33;;
14907;SDS011;7545;52.092;7.006;2023-04-28T03:01:21;4.55;;;3.08;;
14907;SDS011;7545;52.092;7.006;2023-04-28T03:03:47;6.15;;;3.00;;
14907;SDS011;7545;52.092;7.006;2023-04-28T03:06:13;5.88;;;3.80;;
14907;SDS011;7545;52.092;7.006;2023-04-28T03:08:38;4.27;;;3.40;;
14907;SDS011;7545;52.092;7.006;2023-04-28T03:11:04;7.83;;;4.27;;
14907;SDS011;7545;52.092;7.006;2023-04-28T03:13:30;11.00;;;4.88;;
14907;SDS011;7545;52.092;7.006;2023-04-28T03:15:55;5.45;;;3.53;;
14907;SDS011;7545;52.092;7.006;2023-04-28T03:18:21;8.88;;;3.83;;
14907;SDS011;7545;52.092;7.006;2023-04-28T03:20:47;6.77;;;4.10;;
14907;SDS011;7545;52.092;7.006;2023-04-28T03:23:13;5.22;;;3.08;;
14907;SDS011;7545;52.092;7.006;2023-04-28T03:25:39;6.70;;;3.10;;
14907;SDS011;7545;52.092;7.006;2023-04-28T03:28:05;5.07;;;3.70;;
14907;SDS011;7545;52.092;7.006;2023-04-28T03:30:31;3.83;;;2.92;;
14907;SDS011;7545;52.092;7.006;2023-04-28T03:32:56;6.28;;;3.25;;
14907;SDS011;7545;52.092;7.006;2023-04-28T03:35:22;5.97;;;3.57;;
14907;SDS011;7545;52.092;7.006;2023-04-28T03:37:48;5.67;;;3.43;;
14907;SDS011;7545;52.092;7.006;2023-04-28T03:40:13;5.10;;;3.65;;
14907;SDS011;7545;52.092;7.006;2023-04-28T03:42:39;9.88;;;4.35;;
14907;SDS011;7545;52.092;7.006;2023-04-28T03:45:05;6.67;;;4.33;;
14907;SDS011;7545;52.092;7.006;2023-04-28T03:47:31;5.25;;;3.65;;
14907;SDS011;7545;52.092;7.006;2023-04-28T03:49:57;4.72;;;3.70;;
14907;SDS011;7545;52.092;7.006;2023-04-28T03:52:23;6.20;;;3.63;;
14907;SDS011;7545;52.092;7.006;2023-04-28T03:54:50;5.07;;;3.30;;
14907;SDS011;7545;52.092;7.006;2023-04-28T03:57:15;7.60;;;3.80;;
14907;SDS011;7545;52.092;7.006;2023-04-28T03:59:41;6.30;;;3.33;;
14907;SDS011;7545;52.092;7.006;2023-04-28T04:02:07;5.97;;;3.57;;
14907;SDS011;7545;52.092;7.006;2023-04-28T04:04:32;5.25;;;3.40;;
14907;SDS011;7545;52.092;7.006;2023-04-28T04:06:58;6.25;;;3.70;;
14907;SDS011;7545;52.092;7.006;2023-04-28T04:09:24;8.00;;;3.40;;
14907;SDS011;7545;52.092;7.006;2023-04-28T04:11:49;5.77;;;3.90;;
14907;SDS011;7545;52.092;7.006;2023-04-28T04:14:15;8.10;;;3.93;;
14907;SDS011;7545;52.092;7.006;2023-04-28T04:16:40;12.03;;;6.93;;
14907;SDS011;7545;52.092;7.006;2023-04-28T04:19:06;9.80;;;5.43;;
14907;SDS011;7545;52.092;7.006;2023-04-28T04:21:32;8.45;;;4.45;;
14907;SDS011;7545;52.092;7.006;2023-04-28T04:23:58;5.73;;;4.03;;
14907;SDS011;7545;52.092;7.006;2023-04-28T04:26:23;7.43;;;4.60;;
14907;SDS011;7545;52.092;7.006;2023-04-28T04:28:49;7.35;;;3.67;;
14907;SDS011;7545;52.092;7.006;2023-04-28T04:31:15;5.33;;;4.00;;
14907;SDS011;7545;52.092;7.006;2023-04-28T04:33:42;6.88;;;3.53;;
14907;SDS011;7545;52.092;7.006;2023-04-28T04:36:07;4.72;;;3.50;;
14907;SDS011;7545;52.092;7.006;2023-04-28T04:38:33;7.50;;;3.40;;
14907;SDS011;7545;52.092;7.006;2023-04-28T04:40:59;7.30;;;5.07;;
14907;SDS011;7545;52.092;7.006;2023-04-28T04:43:24;7.72;;;4.95;;
14907;SDS011;7545;52.092;7.006;2023-04-28T04:45:50;5.63;;;4.05;;
14907;SDS011;7545;52.092;7.006;2023-04-28T04:48:16;7.55;;;4.78;;
14907;SDS011;7545;52.092;7.006;2023-04-28T04:50:42;6.97;;;4.20;;
14907;SDS011;7545;52.092;7.006;2023-04-28T04:53:08;8.75;;;4.95;;
14907;SDS011;7545;52.092;7.006;2023-04-28T04:55:34;8.23;;;5.20;;
14907;SDS011;7545;52.092;7.006;2023-04-28T04:57:59;6.27;;;4.43;;
14907;SDS011;7545;52.092;7.006;2023-04-28T05:00:25;6.10;;;3.97;;
14907;SDS011;7545;52.092;7.006;2023-04-28T05:02:51;6.55;;;4.53;;
14907;SDS011;7545;52.092;7.006;2023-04-28T05:05:16;7.90;;;4.20;;
14907;SDS011;7545;52.092;7.006;2023-04-28T05:07:42;5.78;;;4.63;;
14907;SDS011;7545;52.092;7.006;2023-04-28T05:10:08;8.13;;;5.35;;
14907;SDS011;7545;52.092;7.006;2023-04-28T05:12:35;6.53;;;5.28;;
14907;SDS011;7545;52.092;7.006;2023-04-28T05:15:02;5.68;;;4.75;;
14907;SDS011;7545;52.092;7.006;2023-04-28T05:17:30;9.70;;;4.85;;
14907;SDS011;7545;52.092;7.006;2023-04-28T05:19:56;9.80;;;5.65;;
14907;SDS011;7545;52.092;7.006;2023-04-28T05:22:21;8.03;;;5.53;;
14907;SDS011;7545;52.092;7.006;2023-04-28T05:24:47;8.50;;;5.65;;
14907;SDS011;7545;52.092;7.006;2023-04-28T05:27:13;6.72;;;5.55;;
14907;SDS011;7545;52.092;7.006;2023-04-28T05:29:38;6.82;;;5.40;;
14907;SDS011;7545;52.092;7.006;2023-04-28T05:32:04;11.35;;;5.90;;
14907;SDS011;7545;52.092;7.006;2023-04-28T05:34:30;10.02;;;5.38;;
14907;SDS011;7545;52.092;7.006;2023-04-28T05:36:55;6.47;;;5.10;;
14907;SDS011;7545;52.092;7.006;2023-04-28T05:39:21;7.53;;;5.40;;
14907;SDS011;7545;52.092;7.006;2023-04-28T05:41:46;7.78;;;6.00;;
14907;SDS011;7545;52.092;7.006;2023-04-28T05:44:12;10.10;;;6.37;;
14907;SDS011;7545;52.092;7.006;2023-04-28T05:46:38;8.65;;;5.22;;
14907;SDS011;7545;52.092;7.006;2023-04-28T05:49:03;6.75;;;6.03;;
14907;SDS011;7545;52.092;7.006;2023-04-28T05:51:29;8.25;;;5.65;;
14907;SDS011;7545;52.092;7.006;2023-04-28T05:53:55;7.43;;;5.55;;
14907;SDS011;7545;52.092;7.006;2023-04-28T05:56:20;10.15;;;6.00;;
14907;SDS011;7545;52.092;7.006;2023-04-28T05:58:46;7.57;;;5.82;;
14907;SDS011;7545;52.092;7.006;2023-04-28T06:01:14;9.52;;;6.32;;
14907;SDS011;7545;52.092;7.006;2023-04-28T06:03:40;11.00;;;7.15;;
14907;SDS011;7545;52.092;7.006;2023-04-28T06:06:07;7.10;;;5.68;;
14907;SDS011;7545;52.092;7.006;2023-04-28T06:08:34;9.70;;;5.90;;
14907;SDS011;7545;52.092;7.006;2023-04-28T06:11:00;7.35;;;6.10;;
14907;SDS011;7545;52.092;7.006;2023-04-28T06:13:26;8.98;;;5.90;;
14907;SDS011;7545;52.092;7.006;2023-04-28T06:15:51;8.60;;;5.32;;
14907;SDS011;7545;52.092;7.006;2023-04-28T06:18:17;9.55;;;6.32;;
14907;SDS011;7545;52.092;7.006;2023-04-28T06:20:43;12.25;;;5.97;;
14907;SDS011;7545;52.092;7.006;2023-04-28T06:23:08;10.38;;;6.60;;
14907;SDS011;7545;52.092;7.006;2023-04-28T06:25:34;10.88;;;6.22;;
14907;SDS011;7545;52.092;7.006;2023-04-28T06:28:01;8.13;;;5.85;;
14907;SDS011;7545;52.092;7.006;2023-04-28T06:30:26;8.57;;;6.47;;
14907;SDS011;7545;52.092;7.006;2023-04-28T06:32:52;8.25;;;6.60;;
14907;SDS011;7545;52.092;7.006;2023-04-28T06:35:18;8.57;;;5.97;;
14907;SDS011;7545;52.092;7.006;2023-04-28T06:37:44;9.68;;;6.47;;
14907;SDS011;7545;52.092;7.006;2023-04-28T06:40:10;10.07;;;6.80;;
14907;SDS011;7545;52.092;7.006;2023-04-28T06:42:35;9.60;;;6.32;;
14907;SDS011;7545;52.092;7.006;2023-04-28T06:45:01;8.43;;;6.32;;
14907;SDS011;7545;52.092;7.006;2023-04-28T06:47:27;11.10;;;5.75;;
14907;SDS011;7545;52.092;7.006;2023-04-28T06:49:53;9.48;;;5.95;;
14907;SDS011;7545;52.092;7.006;2023-04-28T06:52:18;7.55;;;5.88;;
14907;SDS011;7545;52.092;7.006;2023-04-28T06:54:47;10.35;;;6.45;;
14907;SDS011;7545;52.092;7.006;2023-04-28T06:57:13;9.05;;;6.65;;
14907;SDS011;7545;52.092;7.006;2023-04-28T06:59:39;10.95;;;6.57;;
14907;SDS011;7545;52.092;7.006;2023-04-28T07:02:07;8.77;;;5.90;;
14907;SDS011;7545;52.092;7.006;2023-04-28T07:04:34;11.32;;;6.68;;
14907;SDS011;7545;52.092;7.006;2023-04-28T07:07:00;7.75;;;6.38;;
14907;SDS011;7545;52.092;7.006;2023-04-28T07:09:26;11.25;;;6.00;;
14907;SDS011;7545;52.092;7.006;2023-04-28T07:11:51;9.60;;;5.93;;
14907;SDS011;7545;52.092;7.006;2023-04-28T07:14:17;9.98;;;6.40;;
14907;SDS011;7545;52.092;7.006;2023-04-28T07:16:43;9.55;;;6.00;;
14907;SDS011;7545;52.092;7.006;2023-04-28T07:19:08;8.43;;;6.10;;
14907;SDS011;7545;52.092;7.006;2023-04-28T07:21:34;6.82;;;5.47;;
14907;SDS011;7545;52.092;7.006;2023-04-28T07:24:00;5.93;;;5.30;;
14907;SDS011;7545;52.092;7.006;2023-04-28T07:26:25;7.57;;;5.82;;
14907;SDS011;7545;52.092;7.006;2023-04-28T07:28:51;8.48;;;6.30;;
14907;SDS011;7545;52.092;7.006;2023-04-28T07:31:17;9.40;;;6.28;;
14907;SDS011;7545;52.092;7.006;2023-04-28T07:33:42;7.70;;;5.82;;
14907;SDS011;7545;52.092;7.006;2023-04-28T07:36:08;8.80;;;6.63;;
14907;SDS011;7545;52.092;7.006;2023-04-28T07:38:34;7.45;;;5.72;;
14907;SDS011;7545;52.092;7.006;2023-04-28T07:41:01;8.43;;;6.32;;
14907;SDS011;7545;52.092;7.006;2023-04-28T07:43:27;7.40;;;6.25;;
14907;SDS011;7545;52.092;7.006;2023-04-28T07:45:53;7.90;;;5.93;;
14907;SDS011;7545;52.092;7.006;2023-04-28T07:48:19;12.98;;;6.25;;
14907;SDS011;7545;52.092;7.006;2023-04-28T07:50:45;10.65;;;6.35;;
14907;SDS011;7545;52.092;7.006;2023-04-28T07:53:11;10.45;;;6.10;;
14907;SDS011;7545;52.092;7.006;2023-04-28T07:55:36;8.02;;;6.55;;
14907;SDS011;7545;52.092;7.006;2023-04-28T07:58:02;13.88;;;8.70;;
14907;SDS011;7545;52.092;7.006;2023-04-28T08:00:28;9.20;;;7.30;;
14907;SDS011;7545;52.092;7.006;2023-04-28T08:02:54;9.25;;;7.07;;
14907;SDS011;7545;52.092;7.006;2023-04-28T08:05:21;10.27;;;6.80;;
14907;SDS011;7545;52.092;7.006;2023-04-28T08:07:47;10.43;;;6.43;;
14907;SDS011;7545;52.092;7.006;2023-04-28T08:10:12;9.60;;;6.38;;
14907;SDS011;7545;52.092;7.006;2023-04-28T08:12:38;11.57;;;6.72;;
14907;SDS011;7545;52.092;7.006;2023-04-28T08:15:05;9.50;;;7.82;;
14907;SDS011;7545;52.092;7.006;2023-04-28T08:17:31;10.90;;;7.50;;
14907;SDS011;7545;52.092;7.006;2023-04-28T08:19:57;11.85;;;7.32;;
14907;SDS011;7545;52.092;7.006;2023-04-28T08:22:22;10.68;;;7.90;;
14907;SDS011;7545;52.092;7.006;2023-04-28T08:24:48;14.05;;;8.30;;
14907;SDS011;7545;52.092;7.006;2023-04-28T08:27:13;12.77;;;8.15;;
14907;SDS011;7545;52.092;7.006;2023-04-28T08:29:39;10.68;;;7.90;;
14907;SDS011;7545;52.092;7.006;2023-04-28T08:32:05;9.57;;;7.35;;
14907;SDS011;7545;52.092;7.006;2023-04-28T08:34:33;9.90;;;7.88;;
14907;SDS011;7545;52.092;7.006;2023-04-28T08:36:59;7.57;;;6.45;;
14907;SDS011;7545;52.092;7.006;2023-04-28T08:39:25;9.57;;;7.07;;
14907;SDS011;7545;52.092;7.006;2023-04-28T08:41:51;8.57;;;6.63;;
14907;SDS011;7545;52.092;7.006;2023-04-28T08:44:17;9.68;;;7.55;;
14907;SDS011;7545;52.092;7.006;2023-04-28T08:46:44;9.93;;;6.82;;
14907;SDS011;7545;52.092;7.006;2023-04-28T08:49:12;7.93;;;6.20;;
14907;SDS011;7545;52.092;7.006;2023-04-28T08:51:45;8.85;;;6.57;;
14907;SDS011;7545;52.092;7.006;2023-04-28T08:54:15;10.90;;;6.88;;
14907;SDS011;7545;52.092;7.006;2023-04-28T08:56:42;9.57;;;6.60;;
14907;SDS011;7545;52.092;7.006;2023-04-28T08:59:09;10.95;;;7.53;;
14907;SDS011;7545;52.092;7.006;2023-04-28T09:01:35;15.65;;;7.25;;
14907;SDS011;7545;52.092;7.006;2023-04-28T09:04:01;10.10;;;6.88;;
14907;SDS011;7545;52.092;7.006;2023-04-28T09:11:53;9.75;;;6.38;;
14907;SDS011;7545;52.092;7.006;2023-04-28T09:14:27;8.95;;;6.43;;
14907;SDS011;7545;52.092;7.006;2023-04-28T09:16:53;11.27;;;8.07;;
14907;SDS011;7545;52.092;7.006;2023-04-28T09:19:19;10.98;;;6.65;;
14907;SDS011;7545;52.092;7.006;2023-04-28T09:21:45;11.75;;;6.95;;
14907;SDS011;7545;52.092;7.006;2023-04-28T09:24:25;12.38;;;6.57;;
14907;SDS011;7545;52.092;7.006;2023-04-28T09:26:54;9.70;;;6.68;;
14907;SDS011;7545;52.092;7.006;2023-04-28T09:29:20;11.52;;;7.05;;
14907;SDS011;7545;52.092;7.006;2023-04-28T09:31:46;11.38;;;6.97;;
14907;SDS011;7545;52.092;7.006;2023-04-28T09:34:11;9.65;;;6.90;;
14907;SDS011;7545;52.092;7.006;2023-04-28T09:36:37;7.65;;;6.00;;
14907;SDS011;7545;52.092;7.006;2023-04-28T09:39:03;7.40;;;6.38;;
14907;SDS011;7545;52.092;7.006;2023-04-28T09:41:43;10.98;;;6.80;;
14907;SDS011;7545;52.092;7.006;2023-04-28T09:44:13;7.57;;;5.97;;
14907;SDS011;7545;52.092;7.006;2023-04-28T09:46:43;6.60;;;5.72;;
14907;SDS011;7545;52.092;7.006;2023-04-28T09:49:09;7.63;;;5.43;;
14907;SDS011;7545;52.092;7.006;2023-04-28T09:51:36;8.85;;;6.05;;
14907;SDS011;7545;52.092;7.006;2023-04-28T09:54:02;6.75;;;6.07;;
14907;SDS011;7545;52.092;7.006;2023-04-28T09:56:32;8.23;;;6.53;;
14907;SDS011;7545;52.092;7.006;2023-04-28T09:58:59;9.25;;;6.75;;
14907;SDS011;7545;52.092;7.006;2023-04-28T10:01:35;9.82;;;6.47;;
14907;SDS011;7545;52.092;7.006;2023-04-28T10:04:03;6.35;;;4.90;;
14907;SDS011;7545;52.092;7.006;2023-04-28T10:06:30;7.78;;;5.43;;
14907;SDS011;7545;52.092;7.006;2023-04-28T10:09:00;7.88;;;5.80;;
14907;SDS011;7545;52.092;7.006;2023-04-28T10:11:26;7.45;;;6.25;;
14907;SDS011;7545;52.092;7.006;2023-04-28T10:13:53;8.55;;;6.85;;
14907;SDS011;7545;52.092;7.006;2023-04-28T10:16:19;10.45;;;7.10;;
14907;SDS011;7545;52.092;7.006;2023-04-28T10:18:46;9.30;;;6.00;;
14907;SDS011;7545;52.092;7.006;2023-04-28T10:21:13;10.57;;;7.18;;
14907;SDS011;7545;52.092;7.006;2023-04-28T10:29:36;8.80;;;5.72;;
14907;SDS011;7545;52.092;7.006;2023-04-28T10:34:47;8.40;;;6.95;;
14907;SDS011;7545;52.092;7.006;2023-04-28T10:37:13;7.43;;;6.68;;
14907;SDS011;7545;52.092;7.006;2023-04-28T10:39:40;9.48;;;6.88;;
14907;SDS011;7545;52.092;7.006;2023-04-28T10:42:50;7.90;;;6.25;;
14907;SDS011;7545;52.092;7.006;2023-04-28T10:49:03;11.18;;;8.98;;
14907;SDS011;7545;52.092;7.006;2023-04-28T10:56:12;10.30;;;8.07;;
14907;SDS011;7545;52.092;7.006;2023-04-28T10:58:43;8.30;;;7.45;;
14907;SDS011;7545;52.092;7.006;2023-04-28T11:03:56;9.95;;;8.95;;
14907;SDS011;7545;52.092;7.006;2023-04-28T11:06:26;11.35;;;8.15;;
14907;SDS011;7545;52.092;7.006;2023-04-28T11:14:30;9.75;;;8.32;;
14907;SDS011;7545;52.092;7.006;2023-04-28T11:17:00;9.30;;;8.15;;
14907;SDS011;7545;52.092;7.006;2023-04-28T11:19:31;10.10;;;8.77;;
14907;SDS011;7545;52.092;7.006;2023-04-28T11:21:59;11.32;;;9.20;;
14907;SDS011;7545;52.092;7.006;2023-04-28T11:24:27;10.05;;;8.60;;
14907;SDS011;7545;52.092;7.006;2023-04-28T11:26:54;10.93;;;9.35;;
14907;SDS011;7545;52.092;7.006;2023-04-28T11:29:33;9.93;;;8.75;;
14907;SDS011;7545;52.092;7.006;2023-04-28T11:32:00;10.05;;;8.32;;
14907;SDS011;7545;52.092;7.006;2023-04-28T11:34:29;11.00;;;9.40;;
14907;SDS011;7545;52.092;7.006;2023-04-28T11:36:54;10.40;;;9.05;;
14907;SDS011;7545;52.092;7.006;2023-04-28T11:39:27;13.07;;;9.88;;
14907;SDS011;7545;52.092;7.006;2023-04-28T11:41:57;11.23;;;10.02;;
14907;SDS011;7545;52.092;7.006;2023-04-28T11:44:33;12.55;;;10.13;;
14907;SDS011;7545;52.092;7.006;2023-04-28T11:46:59;11.55;;;9.05;;
14907;SDS011;7545;52.092;7.006;2023-04-28T11:49:30;13.88;;;10.25;;
14907;SDS011;7545;52.092;7.006;2023-04-28T11:52:05;12.40;;;10.88;;
14907;SDS011;7545;52.092;7.006;2023-04-28T11:54:33;11.98;;;10.73;;
14907;SDS011;7545;52.092;7.006;2023-04-28T11:57:00;14.02;;;9.70;;
14907;SDS011;7545;52.092;7.006;2023-04-28T11:59:31;12.18;;;10.73;;
14907;SDS011;7545;52.092;7.006;2023-04-28T12:01:59;11.45;;;10.07;;
14907;SDS011;7545;52.092;7.006;2023-04-28T12:04:34;10.90;;;9.82;;
14907;SDS011;7545;52.092;7.006;2023-04-28T12:09:35;11.95;;;9.88;;
14907;SDS011;7545;52.092;7.006;2023-04-28T12:12:05;11.52;;;10.32;;
14907;SDS011;7545;52.092;7.006;2023-04-28T12:14:51;10.95;;;9.85;;
14907;SDS011;7545;52.092;7.006;2023-04-28T12:19:50;13.45;;;9.50;;
14907;SDS011;7545;52.092;7.006;2023-04-28T12:22:16;10.90;;;8.80;;
14907;SDS011;7545;52.092;7.006;2023-04-28T12:24:41;13.88;;;10.27;;
14907;SDS011;7545;52.092;7.006;2023-04-28T12:27:17;12.80;;;11.40;;
14907;SDS011;7545;52.092;7.006;2023-04-28T12:29:45;12.23;;;11.02;;
14907;SDS011;7545;52.092;7.006;2023-04-28T12:32:12;13.20;;;11.80;;
14907;SDS011;7545;52.092;7.006;2023-04-28T12:34:39;13.80;;;12.35;;
14907;SDS011;7545;52.092;7.006;2023-04-28T12:37:05;16.98;;;14.05;;
14907;SDS011;7545;52.092;7.006;2023-04-28T12:39:32;19.30;;;16.30;;
14907;SDS011;7545;52.092;7.006;2023-04-28T12:41:58;18.25;;;15.65;;
14907;SDS011;7545;52.092;7.006;2023-04-28T12:44:26;17.98;;;15.45;;
14907;SDS011;7545;52.092;7.006;2023-04-28T12:46:53;18.42;;;16.10;;
14907;SDS011;7545;52.092;7.006;2023-04-28T12:49:19;19.00;;;16.92;;
14907;SDS011;7545;52.092;7.006;2023-04-28T12:51:45;21.35;;;17.27;;
14907;SDS011;7545;52.092;7.006;2023-04-28T12:54:11;20.83;;;18.42;;
14907;SDS011;7545;52.092;7.006;2023-04-28T12:56:36;24.83;;;17.90;;
14907;SDS011;7545;52.092;7.006;2023-04-28T12:59:02;25.88;;;19.52;;
14907;SDS011;7545;52.092;7.006;2023-04-28T13:01:28;22.70;;;20.27;;
14907;SDS011;7545;52.092;7.006;2023-04-28T13:03:54;23.58;;;18.27;;
14907;SDS011;7545;52.092;7.006;2023-04-28T13:06:20;22.83;;;19.33;;
14907;SDS011;7545;52.092;7.006;2023-04-28T13:08:45;19.85;;;16.42;;
14907;SDS011;7545;52.092;7.006;2023-04-28T13:11:11;21.45;;;18.17;;
14907;SDS011;7545;52.092;7.006;2023-04-28T13:13:37;22.13;;;16.50;;
14907;SDS011;7545;52.092;7.006;2023-04-28T13:16:03;22.00;;;17.65;;
14907;SDS011;7545;52.092;7.006;2023-04-28T13:18:29;23.42;;;19.13;;
14907;SDS011;7545;52.092;7.006;2023-04-28T13:20:56;23.95;;;19.65;;
14907;SDS011;7545;52.092;7.006;2023-04-28T13:23:22;24.20;;;16.98;;
14907;SDS011;7545;52.092;7.006;2023-04-28T13:25:47;20.55;;;15.70;;
14907;SDS011;7545;52.092;7.006;2023-04-28T13:28:13;18.17;;;15.15;;
14907;SDS011;7545;52.092;7.006;2023-04-28T13:30:39;16.63;;;14.77;;
14907;SDS011;7545;52.092;7.006;2023-04-28T13:33:05;15.50;;;13.90;;
14907;SDS011;7545;52.092;7.006;2023-04-28T13:35:30;14.35;;;12.85;;
14907;SDS011;7545;52.092;7.006;2023-04-28T13:37:56;14.32;;;11.93;;
14907;SDS011;7545;52.092;7.006;2023-04-28T13:40:26;13.07;;;11.10;;
14907;SDS011;7545;52.092;7.006;2023-04-28T13:42:52;13.43;;;11.32;;
14907;SDS011;7545;52.092;7.006;2023-04-28T13:45:18;11.75;;;10.50;;
14907;SDS011;7545;52.092;7.006;2023-04-28T13:47:44;10.45;;;9.35;;
14907;SDS011;7545;52.092;7.006;2023-04-28T13:50:09;11.07;;;9.32;;
14907;SDS011;7545;52.092;7.006;2023-04-28T13:52:35;8.55;;;7.63;;
14907;SDS011;7545;52.092;7.006;2023-04-28T13:55:00;8.65;;;7.35;;
14907;SDS011;7545;52.092;7.006;2023-04-28T13:57:26;8.43;;;7.43;;
14907;SDS011;7545;52.092;7.006;2023-04-28T13:59:52;9.18;;;6.43;;
14907;SDS011;7545;52.092;7.006;2023-04-28T14:02:17;8.45;;;7.55;;
14907;SDS011;7545;52.092;7.006;2023-04-28T14:04:43;7.72;;;6.43;;
14907;SDS011;7545;52.092;7.006;2023-04-28T14:07:13;8.63;;;7.75;;
14907;SDS011;7545;52.092;7.006;2023-04-28T14:09:39;7.85;;;6.35;;
14907;SDS011;7545;52.092;7.006;2023-04-28T14:12:04;6.95;;;6.28;;
14907;SDS011;7545;52.092;7.006;2023-04-28T14:14:30;7.05;;;6.35;;
14907;SDS011;7545;52.092;7.006;2023-04-28T14:16:56;7.65;;;6.78;;
14907;SDS011;7545;52.092;7.006;2023-04-28T14:19:22;7.18;;;6.47;;
14907;SDS011;7545;52.092;7.006;2023-04-28T14:21:50;8.10;;;6.78;;
14907;SDS011;7545;52.092;7.006;2023-04-28T14:24:19;7.80;;;6.30;;
14907;SDS011;7545;52.092;7.006;2023-04-28T14:26:45;6.97;;;6.28;;
14907;SDS011;7545;52.092;7.006;2023-04-28T14:29:11;7.57;;;6.55;;
14907;SDS011;7545;52.092;7.006;2023-04-28T14:31:37;8.07;;;7.00;;
14907;SDS011;7545;52.092;7.006;2023-04-28T14:34:03;8.07;;;6.72;;
14907;SDS011;7545;52.092;7.006;2023-04-28T14:36:32;7.25;;;6.55;;
14907;SDS011;7545;52.092;7.006;2023-04-28T14:38:58;7.95;;;6.63;;
14907;SDS011;7545;52.092;7.006;2023-04-28T14:41:24;11.15;;;7.57;;
14907;SDS011;7545;52.092;7.006;2023-04-28T14:43:50;7.65;;;6.85;;
14907;SDS011;7545;52.092;7.006;2023-04-28T14:46:16;8.07;;;7.00;;
14907;SDS011;7545;52.092;7.006;2023-04-28T14:48:47;7.55;;;6.75;;
14907;SDS011;7545;52.092;7.006;2023-04-28T14:51:16;6.07;;;5.28;;
14907;SDS011;7545;52.092;7.006;2023-04-28T14:53:42;5.40;;;4.80;;
14907;SDS011;7545;52.092;7.006;2023-04-28T14:56:08;5.93;;;4.88;;
14907;SDS011;7545;52.092;7.006;2023-04-28T14:58:33;4.90;;;4.40;;
14907;SDS011;7545;52.092;7.006;2023-04-28T15:00:59;5.57;;;4.43;;
14907;SDS011;7545;52.092;7.006;2023-04-28T15:03:27;5.47;;;4.90;;
14907;SDS011;7545;52.092;7.006;2023-04-28T15:05:53;4.32;;;3.92;;
14907;SDS011;7545;52.092;7.006;2023-04-28T15:08:18;5.35;;;4.40;;
14907;SDS011;7545;52.092;7.006;2023-04-28T15:10:44;6.20;;;5.00;;
14907;SDS011;7545;52.092;7.006;2023-04-28T15:13:09;4.85;;;4.18;;
14907;SDS011;7545;52.092;7.006;2023-04-28T15:15:35;4.40;;;3.88;;
14907;SDS011;7545;52.092;7.006;2023-04-28T15:18:01;5.40;;;4.32;;
14907;SDS011;7545;52.092;7.006;2023-04-28T15:20:28;4.40;;;3.80;;
14907;SDS011;7545;52.092;7.006;2023-04-28T15:22:55;4.35;;;3.95;;
14907;SDS011;7545;52.092;7.006;2023-04-28T15:25:21;6.40;;;4.25;;
14907;SDS011;7545;52.092;7.006;2023-04-28T15:27:47;6.07;;;4.30;;